createdAt,value
2023-02-09T00:00:24.799Z,0.13
2023-02-09T00:01:25.432Z,0.13
2023-02-09T00:02:26.100Z,0.13
2023-02-09T00:03:26.558Z,0.09
2023-02-09T00:04:26.718Z,0.09
2023-02-09T00:05:27.480Z,0.09
2023-02-09T00:06:28.381Z,0.09
2023-02-09T00:07:29.340Z,0.09
2023-02-09T00:08:29.527Z,0.13
2023-02-09T00:09:29.581Z,0.09
2023-02-09T00:10:30.372Z,0.09
2023-02-09T00:11:31.095Z,0.09
2023-02-09T00:12:31.881Z,0.09
2023-02-09T00:13:32.704Z,0.09
2023-02-09T00:14:33.440Z,0.09
2023-02-09T00:15:34.292Z,0.09
2023-02-09T00:16:34.377Z,0.09
2023-02-09T00:17:34.594Z,0.09
2023-02-09T00:18:35.524Z,0.09
2023-02-09T00:19:36.329Z,0.09
2023-02-09T00:20:37.124Z,0.09
2023-02-09T00:21:37.900Z,0.09
2023-02-09T00:22:38.692Z,0.09
2023-02-09T00:23:39.053Z,0.09
2023-02-09T00:24:39.865Z,0.09
2023-02-09T00:25:40.799Z,0.13
2023-02-09T00:26:41.419Z,0.09
2023-02-09T00:27:42.311Z,0.13
2023-02-09T00:28:42.374Z,0.09
2023-02-09T00:29:43.281Z,0.09
2023-02-09T00:29:52.964Z,0.09
2023-02-09T00:30:53.807Z,0.09
2023-02-09T00:31:54.111Z,0.13
2023-02-09T00:32:54.831Z,0.13
2023-02-09T00:33:55.082Z,0.13
2023-02-09T00:34:56.058Z,0.09
2023-02-09T00:35:56.970Z,0.09
2023-02-09T00:36:57.099Z,0.13
2023-02-09T00:37:58.009Z,0.13
2023-02-09T00:38:58.957Z,0.09
2023-02-09T00:39:59.967Z,0.13
2023-02-09T00:41:00.875Z,0.13
2023-02-09T00:42:01.617Z,0.09
2023-02-09T00:43:01.621Z,0.13
2023-02-09T00:44:01.690Z,0.13
2023-02-09T00:45:02.253Z,0.09
2023-02-09T00:46:03.288Z,0.13
2023-02-09T00:47:04.032Z,0.13
2023-02-09T00:48:04.904Z,0.09
2023-02-09T00:49:05.916Z,0.09
2023-02-09T00:50:06.788Z,0.13
2023-02-09T00:51:07.705Z,0.09
2023-02-09T00:52:10.053Z,0.13
2023-02-09T00:53:09.311Z,0.09
2023-02-09T00:54:09.397Z,0.09
2023-02-09T00:55:10.145Z,0.13
2023-02-09T00:56:11.039Z,0.09
2023-02-09T00:57:11.022Z,0.09
2023-02-09T00:58:11.812Z,0.09
2023-02-09T00:59:12.639Z,0.13
2023-02-09T01:00:13.450Z,0.13
2023-02-09T01:01:13.751Z,0.09
2023-02-09T01:01:25.874Z,0.16
2023-02-09T01:02:26.628Z,0.09
2023-02-09T01:03:27.326Z,0.09
2023-02-09T01:04:27.449Z,0.13
2023-02-09T01:05:28.036Z,0.13
2023-02-09T01:06:28.702Z,0.13
2023-02-09T01:07:28.953Z,0.09
2023-02-09T01:08:29.925Z,0.13
2023-02-09T01:09:30.924Z,0.09
2023-02-09T01:10:31.757Z,0.09
2023-02-09T01:11:32.055Z,0.09
2023-02-09T01:12:32.786Z,0.09
2023-02-09T01:13:34.770Z,0.13
2023-02-09T01:14:34.039Z,0.09
2023-02-09T01:15:34.993Z,0.09
2023-02-09T01:16:35.983Z,0.09
2023-02-09T01:17:36.374Z,0.09
2023-02-09T01:18:37.308Z,0.09
2023-02-09T01:19:37.382Z,0.09
2023-02-09T01:20:38.224Z,0.09
2023-02-09T01:21:38.245Z,0.09
2023-02-09T01:22:38.460Z,0.13
2023-02-09T01:23:39.405Z,0.13
2023-02-09T01:24:39.492Z,0.09
2023-02-09T01:26:06.187Z,0.13
2023-02-09T01:27:31.983Z,0.13
2023-02-09T01:28:32.789Z,0.09
2023-02-09T01:29:33.680Z,0.09
2023-02-09T01:30:34.698Z,0.09
2023-02-09T01:31:35.538Z,0.09
2023-02-09T01:32:35.390Z,0.09
2023-02-09T01:33:36.259Z,0.09
2023-02-09T01:34:36.866Z,0.09
2023-02-09T01:35:37.127Z,0.09
2023-02-09T01:36:37.975Z,0.13
2023-02-09T01:37:38.133Z,0.09
2023-02-09T01:38:38.383Z,0.13
2023-02-09T01:39:39.263Z,0.09
2023-02-09T01:40:39.339Z,0.09
2023-02-09T01:41:39.649Z,0.09
2023-02-09T01:42:40.371Z,0.13
2023-02-09T01:43:41.019Z,0.09
2023-02-09T01:44:41.870Z,0.09
2023-02-09T01:45:42.722Z,0.09
2023-02-09T01:46:43.489Z,0.13
2023-02-09T01:47:44.505Z,0.09
2023-02-09T01:48:45.002Z,0.09
2023-02-09T01:49:45.780Z,0.09
2023-02-09T01:50:46.212Z,0.09
2023-02-09T01:51:46.169Z,0.09
2023-02-09T01:52:47.244Z,0.09
2023-02-09T01:53:46.735Z,0.13
2023-02-09T01:54:46.952Z,0.09
2023-02-09T01:55:47.081Z,0.09
2023-02-09T01:56:47.340Z,0.09
2023-02-09T01:57:47.808Z,0.09
2023-02-09T01:58:47.818Z,0.09
2023-02-09T01:58:57.119Z,0.09
2023-02-09T01:59:57.623Z,0.09
2023-02-09T02:00:59.939Z,0.09
2023-02-09T02:01:57.816Z,0.09
2023-02-09T02:02:58.677Z,0.13
2023-02-09T02:03:59.521Z,0.13
2023-02-09T02:05:00.465Z,0.09
2023-02-09T02:06:01.152Z,0.09
2023-02-09T02:07:01.275Z,0.09
2023-02-09T02:08:01.418Z,0.09
2023-02-09T02:09:01.483Z,0.09
2023-02-09T02:10:01.654Z,0.09
2023-02-09T02:11:01.779Z,0.09
2023-02-09T02:12:02.116Z,0.09
2023-02-09T02:13:03.061Z,0.09
2023-02-09T02:14:03.187Z,0.09
2023-02-09T02:15:04.063Z,0.09
2023-02-09T02:16:04.731Z,0.09
2023-02-09T02:17:04.785Z,0.09
2023-02-09T02:18:05.760Z,0.09
2023-02-09T02:19:05.916Z,0.09
2023-02-09T02:20:06.762Z,0.09
2023-02-09T02:21:07.005Z,0.09
2023-02-09T02:22:07.437Z,0.09
2023-02-09T02:23:08.030Z,0.09
2023-02-09T02:24:08.210Z,0.09
2023-02-09T02:25:08.338Z,0.09
2023-02-09T02:26:08.507Z,0.09
2023-02-09T02:27:08.519Z,0.13
2023-02-09T02:28:09.680Z,0.09
2023-02-09T02:29:10.324Z,0.09
2023-02-09T02:30:10.497Z,0.09
2023-02-09T02:30:19.324Z,0.09
2023-02-09T02:31:19.429Z,0.09
2023-02-09T02:32:20.317Z,0.13
2023-02-09T02:33:20.520Z,0.13
2023-02-09T02:34:21.502Z,0.09
2023-02-09T02:35:21.601Z,0.09
2023-02-09T02:36:22.025Z,0.09
2023-02-09T02:37:22.229Z,0.13
2023-02-09T02:38:22.381Z,0.09
2023-02-09T02:39:23.346Z,0.09
2023-02-09T02:40:24.235Z,0.13
2023-02-09T02:41:24.490Z,0.09
2023-02-09T02:42:26.008Z,0.09
2023-02-09T02:43:26.018Z,0.09
2023-02-09T02:44:26.904Z,0.09
2023-02-09T02:45:26.980Z,0.09
2023-02-09T02:46:27.377Z,0.09
2023-02-09T02:47:27.554Z,0.09
2023-02-09T02:48:28.569Z,0.13
2023-02-09T02:49:28.640Z,0.16
2023-02-09T02:50:29.630Z,0.13
2023-02-09T02:51:29.681Z,0.16
2023-02-09T02:52:30.626Z,0.16
2023-02-09T02:54:10.618Z,0.16
2023-02-09T02:55:43.279Z,0.09
2023-02-09T02:56:43.442Z,0.09
2023-02-09T02:58:10.123Z,0.09
2023-02-09T02:59:10.356Z,0.09
2023-02-09T03:00:10.653Z,0.09
2023-02-09T03:01:11.168Z,0.09
2023-02-09T03:02:11.273Z,0.09
2023-02-09T03:03:12.139Z,0.09
2023-02-09T03:04:15.956Z,0.13
2023-02-09T03:05:14.246Z,0.09
2023-02-09T03:06:13.292Z,0.09
2023-02-09T03:07:13.415Z,0.09
2023-02-09T03:08:13.648Z,0.09
2023-02-09T03:09:13.929Z,0.09
2023-02-09T03:10:14.958Z,0.09
2023-02-09T03:11:15.134Z,0.09
2023-02-09T03:12:15.558Z,0.09
2023-02-09T03:13:15.795Z,0.09
2023-02-09T03:14:15.973Z,0.09
2023-02-09T03:15:16.874Z,0.09
2023-02-09T03:16:17.717Z,0.09
2023-02-09T03:17:17.712Z,0.09
2023-02-09T03:18:18.723Z,0.09
2023-02-09T03:19:18.710Z,0.13
2023-02-09T03:20:18.887Z,0.09
2023-02-09T03:21:19.889Z,0.09
2023-02-09T03:22:19.927Z,0.09
2023-02-09T03:23:20.758Z,0.09
2023-02-09T03:24:21.626Z,0.09
2023-02-09T03:25:22.373Z,0.09
2023-02-09T03:26:22.721Z,0.09
2023-02-09T03:27:22.809Z,0.09
2023-02-09T03:28:23.856Z,0.09
2023-02-09T03:29:23.979Z,0.09
2023-02-09T03:29:33.400Z,0.09
2023-02-09T03:30:34.082Z,0.09
2023-02-09T03:31:34.598Z,0.09
2023-02-09T03:32:35.087Z,0.09
2023-02-09T03:33:35.119Z,0.09
2023-02-09T03:34:35.132Z,0.09
2023-02-09T03:35:35.298Z,0.09
2023-02-09T03:36:36.276Z,0.09
2023-02-09T03:37:36.387Z,0.09
2023-02-09T03:38:37.212Z,0.09
2023-02-09T03:39:37.973Z,0.09
2023-02-09T03:40:38.869Z,0.09
2023-02-09T03:41:39.646Z,0.09
2023-02-09T03:42:39.725Z,0.09
2023-02-09T03:43:40.446Z,0.09
2023-02-09T03:44:41.225Z,0.09
2023-02-09T03:45:41.273Z,0.09
2023-02-09T03:46:41.872Z,0.09
2023-02-09T03:47:43.889Z,0.09
2023-02-09T03:48:43.752Z,0.09
2023-02-09T03:49:44.588Z,0.09
2023-02-09T03:50:45.182Z,0.09
2023-02-09T03:51:45.678Z,0.09
2023-02-09T03:52:46.611Z,0.09
2023-02-09T03:53:47.507Z,0.09
2023-02-09T03:54:47.834Z,0.09
2023-02-09T03:55:47.966Z,0.09
2023-02-09T03:56:48.059Z,0.09
2023-02-09T03:57:49.058Z,0.09
2023-02-09T03:58:49.377Z,0.09
2023-02-09T03:59:50.233Z,0.09
2023-02-09T04:00:51.076Z,0.09
2023-02-09T04:01:51.880Z,0.09
2023-02-09T04:02:01.640Z,0.09
2023-02-09T04:03:01.706Z,0.09
2023-02-09T04:04:02.507Z,0.09
2023-02-09T04:05:05.662Z,0.09
2023-02-09T04:06:04.261Z,0.13
2023-02-09T04:07:05.255Z,0.13
2023-02-09T04:08:50.929Z,0.09
2023-02-09T04:09:50.990Z,0.09
2023-02-09T04:10:51.388Z,0.09
2023-02-09T04:11:51.414Z,0.09
2023-02-09T04:12:53.242Z,0.09
2023-02-09T04:13:52.331Z,0.09
2023-02-09T04:14:53.237Z,0.09
2023-02-09T04:15:54.176Z,0.09
2023-02-09T04:16:54.885Z,0.09
2023-02-09T04:17:55.603Z,0.09
2023-02-09T04:18:56.500Z,0.09
2023-02-09T04:19:57.335Z,0.09
2023-02-09T04:20:58.263Z,0.09
2023-02-09T04:21:58.600Z,0.09
2023-02-09T04:22:59.115Z,0.09
2023-02-09T04:23:59.444Z,0.13
2023-02-09T04:25:00.253Z,0.09
2023-02-09T04:26:00.366Z,0.09
2023-02-09T04:27:01.340Z,0.09
2023-02-09T04:28:02.170Z,0.09
2023-02-09T04:29:02.738Z,0.09
2023-02-09T04:30:03.711Z,0.09
2023-02-09T04:31:03.913Z,0.09
2023-02-09T04:32:04.377Z,0.09
2023-02-09T04:33:04.838Z,0.09
2023-02-09T04:34:05.278Z,0.13
2023-02-09T04:35:05.556Z,0.09
2023-02-09T04:36:05.579Z,0.09
2023-02-09T04:37:06.448Z,0.09
2023-02-09T04:38:07.185Z,0.09
2023-02-09T04:39:08.131Z,0.09
2023-02-09T04:39:16.986Z,0.09
2023-02-09T04:40:17.705Z,0.09
2023-02-09T04:41:18.619Z,0.09
2023-02-09T04:42:19.461Z,0.09
2023-02-09T04:43:19.498Z,0.13
2023-02-09T04:44:20.490Z,0.09
2023-02-09T04:45:20.541Z,0.13
2023-02-09T04:46:21.542Z,0.13
2023-02-09T04:47:21.530Z,0.09
2023-02-09T04:48:22.207Z,0.09
2023-02-09T04:49:22.875Z,0.13
2023-02-09T04:50:23.952Z,0.13
2023-02-09T04:51:24.836Z,0.13
2023-02-09T04:52:24.828Z,0.09
2023-02-09T04:54:59.396Z,0.09
2023-02-09T04:55:59.551Z,0.13
2023-02-09T04:57:03.609Z,0.13
2023-02-09T04:58:01.312Z,0.13
2023-02-09T04:59:02.381Z,0.09
2023-02-09T05:00:02.375Z,0.09
2023-02-09T05:01:02.796Z,0.13
2023-02-09T05:02:02.886Z,0.13
2023-02-09T05:03:02.887Z,0.09
2023-02-09T05:04:03.552Z,0.09
2023-02-09T05:05:49.853Z,0.09
2023-02-09T05:06:49.967Z,0.09
2023-02-09T05:07:49.993Z,0.09
2023-02-09T05:08:50.959Z,0.09
2023-02-09T05:09:51.902Z,0.09
2023-02-09T05:10:51.871Z,0.09
2023-02-09T05:11:52.153Z,0.09
2023-02-09T05:12:52.920Z,0.09
2023-02-09T05:13:53.216Z,0.09
2023-02-09T05:14:53.331Z,0.09
2023-02-09T05:15:53.401Z,0.09
2023-02-09T05:16:53.985Z,0.09
2023-02-09T05:17:54.765Z,0.09
2023-02-09T05:18:54.948Z,0.09
2023-02-09T05:19:54.970Z,0.09
2023-02-09T05:20:55.087Z,0.09
2023-02-09T05:21:55.169Z,0.09
2023-02-09T05:22:55.943Z,0.09
2023-02-09T05:23:56.113Z,0.09
2023-02-09T05:24:56.144Z,0.09
2023-02-09T05:25:56.901Z,0.09
2023-02-09T05:26:57.887Z,0.09
2023-02-09T05:27:58.834Z,0.09
2023-02-09T05:28:59.663Z,0.09
2023-02-09T05:30:00.453Z,0.09
2023-02-09T05:31:01.423Z,0.09
2023-02-09T05:32:01.415Z,0.09
2023-02-09T05:33:01.427Z,0.13
2023-02-09T05:34:01.521Z,0.09
2023-02-09T05:35:02.466Z,0.09
2023-02-09T05:36:02.638Z,0.09
2023-02-09T05:37:03.580Z,0.09
2023-02-09T05:37:12.224Z,0.09
2023-02-09T05:38:13.106Z,0.09
2023-02-09T05:39:14.085Z,0.09
2023-02-09T05:40:14.757Z,0.09
2023-02-09T05:41:14.838Z,0.09
2023-02-09T05:42:14.897Z,0.09
2023-02-09T05:43:14.887Z,0.09
2023-02-09T05:44:15.257Z,0.13
2023-02-09T05:45:16.192Z,0.09
2023-02-09T05:46:17.251Z,0.09
2023-02-09T05:47:17.613Z,0.09
2023-02-09T05:48:18.473Z,0.09
2023-02-09T05:49:19.136Z,0.09
2023-02-09T05:50:20.002Z,0.09
2023-02-09T05:51:20.969Z,0.09
2023-02-09T05:52:21.021Z,0.09
2023-02-09T05:53:21.872Z,0.13
2023-02-09T05:54:22.816Z,0.09
2023-02-09T05:55:23.078Z,0.09
2023-02-09T05:56:23.317Z,0.09
2023-02-09T05:57:24.180Z,0.09
2023-02-09T05:58:24.221Z,0.13
2023-02-09T05:59:24.777Z,0.13
2023-02-09T06:00:25.372Z,0.13
2023-02-09T06:01:25.369Z,0.09
2023-02-09T06:02:25.654Z,0.13
2023-02-09T06:03:25.820Z,0.09
2023-02-09T06:04:25.810Z,0.16
2023-02-09T06:05:26.804Z,0.13
2023-02-09T06:06:26.808Z,0.13
2023-02-09T06:07:26.938Z,0.13
2023-02-09T06:08:34.135Z,0.13
2023-02-09T06:09:18.079Z,0.16
2023-02-09T06:10:46.846Z,0.13
2023-02-09T06:11:47.440Z,0.13
2023-02-09T06:12:47.589Z,0.13
2023-02-09T06:13:47.864Z,0.13
2023-02-09T06:14:48.395Z,0.13
2023-02-09T06:15:49.299Z,0.13
2023-02-09T06:16:49.520Z,0.13
2023-02-09T06:17:50.538Z,0.13
2023-02-09T06:18:50.732Z,0.13
2023-02-09T06:19:51.652Z,0.13
2023-02-09T06:20:52.490Z,0.13
2023-02-09T06:21:53.395Z,0.13
2023-02-09T06:22:53.506Z,0.13
2023-02-09T06:23:54.493Z,0.13
2023-02-09T06:24:55.421Z,0.13
2023-02-09T06:25:55.634Z,0.13
2023-02-09T06:26:56.491Z,0.16
2023-02-09T06:27:56.587Z,0.13
2023-02-09T06:28:57.301Z,0.13
2023-02-09T06:29:58.296Z,0.13
2023-02-09T06:30:59.379Z,0.13
2023-02-09T06:32:00.263Z,0.13
2023-02-09T06:33:00.679Z,0.13
2023-02-09T06:34:01.583Z,0.13
2023-02-09T06:35:02.162Z,0.16
2023-02-09T06:36:02.219Z,0.23
2023-02-09T06:37:05.180Z,0.16
2023-02-09T06:40:07.277Z,0.23
2023-02-09T06:41:07.324Z,0.23
2023-02-09T06:42:08.169Z,0.16
2023-02-09T06:43:09.009Z,0.23
2023-02-09T06:44:09.134Z,0.16
2023-02-09T06:45:09.333Z,0.16
2023-02-09T06:46:09.717Z,0.16
2023-02-09T06:47:09.967Z,0.16
2023-02-09T06:48:10.935Z,0.13
2023-02-09T06:49:11.688Z,0.16
2023-02-09T06:50:11.855Z,0.16
2023-02-09T06:51:11.985Z,0.16
2023-02-09T06:52:12.618Z,0.16
2023-02-09T06:53:13.554Z,0.16
2023-02-09T06:54:13.885Z,0.16
2023-02-09T06:55:14.833Z,0.16
2023-02-09T06:56:14.918Z,0.23
2023-02-09T06:57:14.937Z,0.16
2023-02-09T06:58:15.795Z,0.23
2023-02-09T06:59:16.737Z,0.16
2023-02-09T07:00:16.991Z,0.16
2023-02-09T07:01:18.029Z,0.23
2023-02-09T07:02:18.116Z,0.23
2023-02-09T07:03:18.941Z,0.23
2023-02-09T07:04:19.833Z,0.16
2023-02-09T07:05:20.383Z,0.23
2023-02-09T07:06:20.881Z,0.23
2023-02-09T07:07:25.512Z,0.23
2023-02-09T07:08:21.110Z,0.23
2023-02-09T07:09:21.998Z,0.23
2023-02-09T07:10:22.785Z,0.23
2023-02-09T07:10:33.430Z,0.23
2023-02-09T07:11:33.995Z,0.27
2023-02-09T07:12:34.881Z,0.23
2023-02-09T07:13:35.075Z,0.27
2023-02-09T07:14:35.443Z,0.23
2023-02-09T07:15:36.385Z,0.27
2023-02-09T07:16:37.200Z,0.27
2023-02-09T07:17:37.201Z,0.27
2023-02-09T07:18:38.189Z,0.23
2023-02-09T07:19:39.070Z,0.23
2023-02-09T07:20:39.387Z,0.27
2023-02-09T07:21:39.660Z,0.27
2023-02-09T07:22:40.197Z,0.27
2023-02-09T07:23:41.200Z,0.27
2023-02-09T07:24:41.306Z,0.27
2023-02-09T07:25:41.426Z,0.27
2023-02-09T07:26:42.259Z,0.27
2023-02-09T07:27:43.144Z,0.27
2023-02-09T07:28:44.075Z,0.27
2023-02-09T07:29:44.990Z,0.27
2023-02-09T07:30:46.168Z,0.27
2023-02-09T07:31:46.790Z,0.27
2023-02-09T07:32:47.329Z,0.27
2023-02-09T07:33:48.267Z,0.27
2023-02-09T07:34:48.407Z,0.27
2023-02-09T07:35:49.359Z,0.27
2023-02-09T07:36:49.652Z,0.27
2023-02-09T07:37:50.514Z,0.27
2023-02-09T07:38:50.638Z,0.16
2023-02-09T07:39:51.493Z,0.27
2023-02-09T07:40:51.674Z,0.27
2023-02-09T07:41:01.347Z,0.31
2023-02-09T07:42:02.328Z,0.27
2023-02-09T07:43:03.155Z,0.27
2023-02-09T07:44:03.220Z,0.27
2023-02-09T07:45:03.754Z,0.27
2023-02-09T07:46:03.750Z,0.31
2023-02-09T07:47:04.582Z,0.31
2023-02-09T07:48:04.838Z,0.31
2023-02-09T07:49:04.897Z,0.31
2023-02-09T07:50:05.021Z,0.27
2023-02-09T07:51:05.209Z,0.31
2023-02-09T07:52:05.719Z,0.31
2023-02-09T07:53:06.623Z,0.31
2023-02-09T07:54:07.499Z,0.31
2023-02-09T07:55:06.742Z,0.31
2023-02-09T07:56:07.721Z,0.31
2023-02-09T07:57:08.650Z,0.31
2023-02-09T07:58:09.403Z,0.31
2023-02-09T07:59:09.557Z,0.31
2023-02-09T08:00:10.095Z,0.31
2023-02-09T08:01:10.122Z,0.34
2023-02-09T08:02:10.220Z,0.31
2023-02-09T08:03:10.363Z,0.34
2023-02-09T08:04:18.343Z,0.34
2023-02-09T08:05:11.525Z,0.31
2023-02-09T08:06:11.643Z,0.34
2023-02-09T08:07:12.466Z,0.34
2023-02-09T08:07:31.114Z,0.31
2023-02-09T08:08:31.112Z,0.31
2023-02-09T08:09:32.952Z,0.34
2023-02-09T08:10:32.185Z,0.34
2023-02-09T08:15:16.693Z,0.31
2023-02-09T08:16:15.768Z,0.31
2023-02-09T08:17:15.495Z,0.34
2023-02-09T08:18:15.710Z,0.34
2023-02-09T08:19:23.534Z,0.31
2023-02-09T08:20:18.161Z,0.34
2023-02-09T08:21:17.339Z,0.34
2023-02-09T08:23:37.566Z,0.34
2023-02-09T08:24:36.821Z,0.31
2023-02-09T08:25:36.955Z,0.31
2023-02-09T08:26:37.974Z,0.34
2023-02-09T08:27:38.717Z,0.31
2023-02-09T08:28:44.274Z,0.34
2023-02-09T08:29:39.614Z,0.34
2023-02-09T08:30:40.448Z,0.31
2023-02-09T08:31:40.725Z,0.38
2023-02-09T08:33:13.469Z,0.34
2023-02-09T08:34:13.438Z,0.38
2023-02-09T08:35:14.025Z,0.34
2023-02-09T08:36:14.963Z,0.34
2023-02-09T08:37:15.642Z,0.34
2023-02-09T08:38:16.580Z,0.34
2023-02-09T08:39:16.730Z,0.34
2023-02-09T08:40:16.770Z,0.34
2023-02-09T08:41:17.651Z,0.34
2023-02-09T08:42:18.915Z,0.34
2023-02-09T08:43:18.997Z,0.34
2023-02-09T08:44:19.845Z,0.34
2023-02-09T08:45:20.566Z,0.34
2023-02-09T08:46:22.255Z,0.34
2023-02-09T08:47:22.095Z,0.34
2023-02-09T08:48:23.169Z,0.34
2023-02-09T08:49:23.102Z,0.34
2023-02-09T08:50:23.490Z,0.34
2023-02-09T08:51:23.698Z,0.34
2023-02-09T08:52:23.767Z,0.34
2023-02-09T08:53:24.456Z,0.34
2023-02-09T08:54:24.673Z,0.34
2023-02-09T08:55:25.341Z,0.34
2023-02-09T08:56:25.646Z,0.34
2023-02-09T08:57:41.658Z,0.34
2023-02-09T08:58:25.979Z,0.34
2023-02-09T08:59:26.906Z,0.34
2023-02-09T09:00:27.034Z,0.34
2023-02-09T09:01:27.470Z,0.34
2023-02-09T09:02:28.345Z,0.34
2023-02-09T09:03:28.893Z,0.34
2023-02-09T09:03:37.620Z,0.34
2023-02-09T09:04:38.381Z,0.34
2023-02-09T09:05:38.481Z,0.34
2023-02-09T09:06:38.530Z,0.34
2023-02-09T09:07:40.151Z,0.34
2023-02-09T09:08:39.199Z,0.34
2023-02-09T09:09:39.519Z,0.34
2023-02-09T09:10:39.927Z,0.34
2023-02-09T09:11:40.817Z,0.34
2023-02-09T09:12:40.861Z,0.34
2023-02-09T09:13:40.862Z,0.34
2023-02-09T09:14:41.186Z,0.34
2023-02-09T09:15:41.606Z,0.34
2023-02-09T09:16:42.657Z,0.34
2023-02-09T09:17:42.682Z,0.34
2023-02-09T09:18:43.589Z,0.34
2023-02-09T09:19:44.524Z,0.34
2023-02-09T09:20:45.372Z,0.38
2023-02-09T09:21:45.629Z,0.38
2023-02-09T09:22:46.199Z,0.34
2023-02-09T09:23:46.151Z,0.38
2023-02-09T09:24:47.083Z,0.38
2023-02-09T09:25:48.142Z,0.34
2023-02-09T09:26:48.611Z,0.38
2023-02-09T09:27:48.700Z,0.38
2023-02-09T09:28:48.932Z,0.34
2023-02-09T09:29:49.663Z,0.34
2023-02-09T09:30:49.441Z,0.38
2023-02-09T09:31:49.581Z,0.38
2023-02-09T09:32:52.976Z,0.38
2023-02-09T09:33:51.261Z,0.41
2023-02-09T09:33:59.929Z,0.38
2023-02-09T09:34:59.983Z,0.38
2023-02-09T09:36:00.412Z,0.38
2023-02-09T09:37:00.650Z,0.38
2023-02-09T09:38:01.614Z,0.38
2023-02-09T09:39:02.119Z,0.38
2023-02-09T09:40:02.334Z,0.38
2023-02-09T09:41:02.525Z,0.38
2023-02-09T09:42:03.313Z,0.38
2023-02-09T09:43:03.751Z,0.38
2023-02-09T09:44:04.555Z,0.38
2023-02-09T09:45:05.579Z,0.38
2023-02-09T09:46:05.808Z,0.38
2023-02-09T09:47:06.322Z,0.38
2023-02-09T09:48:07.173Z,0.38
2023-02-09T09:49:07.554Z,0.38
2023-02-09T09:50:08.602Z,0.38
2023-02-09T09:51:09.212Z,0.38
2023-02-09T09:52:09.714Z,0.38
2023-02-09T09:53:09.782Z,0.38
2023-02-09T09:54:09.933Z,0.38
2023-02-09T09:55:10.233Z,0.38
2023-02-09T09:56:10.551Z,0.38
2023-02-09T09:57:10.678Z,0.38
2023-02-09T09:58:10.971Z,0.38
2023-02-09T09:59:11.191Z,0.41
2023-02-09T10:00:11.700Z,0.38
2023-02-09T10:01:12.094Z,0.41
2023-02-09T10:02:14.048Z,0.38
2023-02-09T10:03:12.535Z,0.38
2023-02-09T10:03:32.045Z,0.38
2023-02-09T10:04:36.436Z,0.41
2023-02-09T10:05:31.482Z,0.38
2023-02-09T10:06:34.938Z,0.38
2023-02-09T10:07:32.194Z,0.38
2023-02-09T10:08:32.524Z,0.41
2023-02-09T10:09:32.711Z,0.41
2023-02-09T10:10:33.740Z,0.38
2023-02-09T10:11:33.852Z,0.41
2023-02-09T10:12:34.322Z,0.38
2023-02-09T10:13:35.207Z,0.38
2023-02-09T10:14:35.590Z,0.38
2023-02-09T10:15:35.716Z,0.41
2023-02-09T10:16:36.025Z,0.41
2023-02-09T10:17:36.849Z,0.41
2023-02-09T10:18:36.971Z,0.38
2023-02-09T10:19:37.222Z,0.41
2023-02-09T10:20:37.437Z,0.41
2023-02-09T10:21:37.690Z,0.41
2023-02-09T10:22:37.798Z,0.41
2023-02-09T10:23:38.758Z,0.45
2023-02-09T10:24:39.202Z,0.52
2023-02-09T10:25:40.254Z,0.55
2023-02-09T10:27:23.798Z,0.48
2023-02-09T10:28:57.323Z,0.41
2023-02-09T10:29:57.292Z,0.45
2023-02-09T10:30:57.456Z,0.48
2023-02-09T10:31:58.259Z,0.66
2023-02-09T10:32:59.133Z,0.66
2023-02-09T10:33:59.262Z,0.59
2023-02-09T10:34:59.416Z,0.59
2023-02-09T10:36:00.098Z,0.70
2023-02-09T10:37:00.746Z,0.77
2023-02-09T10:38:00.919Z,0.80
2023-02-09T10:39:01.182Z,0.80
2023-02-09T10:40:01.987Z,0.77
2023-02-09T10:41:01.968Z,0.80
2023-02-09T10:42:02.803Z,0.91
2023-02-09T10:43:02.818Z,0.91
2023-02-09T10:44:03.688Z,0.95
2023-02-09T10:45:04.797Z,0.95
2023-02-09T10:46:05.551Z,0.95
2023-02-09T10:47:06.531Z,0.95
2023-02-09T10:48:06.505Z,0.95
2023-02-09T10:49:06.607Z,0.91
2023-02-09T10:50:07.541Z,0.91
2023-02-09T10:51:07.546Z,0.91
2023-02-09T10:52:08.034Z,0.91
2023-02-09T10:53:08.883Z,0.95
2023-02-09T10:54:10.130Z,0.95
2023-02-09T10:55:10.116Z,0.95
2023-02-09T10:56:10.479Z,0.95
2023-02-09T10:57:10.566Z,0.91
2023-02-09T10:58:11.561Z,0.91
2023-02-09T10:59:11.531Z,0.91
2023-02-09T11:00:12.225Z,0.91
2023-02-09T11:00:20.923Z,0.91
2023-02-09T11:01:21.225Z,0.95
2023-02-09T11:02:21.785Z,0.95
2023-02-09T11:03:21.897Z,0.91
2023-02-09T11:04:22.298Z,0.80
2023-02-09T11:05:22.657Z,0.84
2023-02-09T11:06:22.815Z,0.84
2023-02-09T11:07:22.954Z,0.84
2023-02-09T11:08:24.922Z,0.84
2023-02-09T11:09:24.200Z,0.84
2023-02-09T11:10:25.090Z,0.84
2023-02-09T11:11:26.221Z,0.88
2023-02-09T11:12:26.001Z,0.91
2023-02-09T11:13:26.125Z,0.98
2023-02-09T11:14:26.863Z,0.95
2023-02-09T11:15:27.007Z,0.91
2023-02-09T11:16:27.553Z,0.98
2023-02-09T11:17:27.691Z,0.91
2023-02-09T11:18:27.712Z,0.88
2023-02-09T11:19:28.699Z,0.91
2023-02-09T11:20:29.619Z,0.91
2023-02-09T11:21:29.625Z,0.91
2023-02-09T11:22:30.169Z,0.88
2023-02-09T11:23:30.935Z,0.91
2023-02-09T11:24:31.234Z,0.91
2023-02-09T11:25:32.037Z,0.91
2023-02-09T11:26:32.926Z,0.91
2023-02-09T11:27:33.892Z,0.91
2023-02-09T11:28:34.941Z,0.91
2023-02-09T11:29:35.748Z,0.91
2023-02-09T11:29:46.452Z,0.91
2023-02-09T11:30:47.145Z,0.91
2023-02-09T11:31:49.154Z,0.91
2023-02-09T11:32:47.526Z,0.91
2023-02-09T11:33:48.431Z,0.91
2023-02-09T11:34:48.808Z,0.91
2023-02-09T11:35:49.733Z,0.91
2023-02-09T11:36:50.727Z,0.95
2023-02-09T11:37:50.913Z,0.91
2023-02-09T11:38:51.009Z,0.91
2023-02-09T11:39:53.323Z,0.91
2023-02-09T11:40:51.257Z,0.91
2023-02-09T11:41:51.387Z,0.95
2023-02-09T11:42:51.646Z,0.91
2023-02-09T11:43:51.756Z,0.91
2023-02-09T11:44:52.258Z,0.91
2023-02-09T11:45:52.291Z,0.88
2023-02-09T11:46:52.305Z,0.91
2023-02-09T11:47:52.613Z,0.91
2023-02-09T11:48:52.801Z,0.91
2023-02-09T11:49:52.851Z,0.91
2023-02-09T11:50:53.761Z,0.91
2023-02-09T11:51:53.995Z,0.88
2023-02-09T11:52:55.018Z,0.88
2023-02-09T11:53:55.219Z,0.91
2023-02-09T11:54:56.117Z,0.88
2023-02-09T11:55:57.058Z,0.91
2023-02-09T11:56:57.259Z,0.91
2023-02-09T11:57:58.182Z,0.91
2023-02-09T11:58:59.120Z,0.91
2023-02-09T12:00:00.147Z,0.91
2023-02-09T12:01:10.155Z,0.91
2023-02-09T12:01:15.556Z,0.91
2023-02-09T12:02:09.286Z,0.91
2023-02-09T12:03:10.344Z,0.91
2023-02-09T12:04:11.159Z,0.91
2023-02-09T12:05:11.698Z,0.84
2023-02-09T12:06:12.251Z,0.84
2023-02-09T12:07:12.816Z,0.91
2023-02-09T12:08:13.101Z,0.84
2023-02-09T12:09:13.547Z,0.84
2023-02-09T12:10:13.531Z,0.84
2023-02-09T12:11:13.667Z,0.84
2023-02-09T12:12:14.701Z,0.80
2023-02-09T12:13:14.954Z,0.84
2023-02-09T12:14:15.953Z,0.84
2023-02-09T12:15:16.087Z,0.91
2023-02-09T12:16:16.330Z,0.84
2023-02-09T12:17:16.651Z,0.84
2023-02-09T12:18:16.828Z,0.91
2023-02-09T12:19:17.024Z,0.84
2023-02-09T12:20:17.039Z,0.88
2023-02-09T12:21:17.070Z,0.88
2023-02-09T12:22:17.403Z,0.84
2023-02-09T12:23:17.579Z,0.80
2023-02-09T12:24:18.459Z,0.80
2023-02-09T12:25:19.125Z,0.80
2023-02-09T12:26:19.490Z,0.84
2023-02-09T12:27:19.512Z,0.84
2023-02-09T12:27:28.660Z,0.80
2023-02-09T12:28:28.750Z,0.80
2023-02-09T12:29:28.732Z,0.91
2023-02-09T12:30:28.786Z,0.80
2023-02-09T12:31:29.405Z,0.80
2023-02-09T12:32:29.559Z,0.77
2023-02-09T12:33:30.370Z,0.77
2023-02-09T12:34:30.583Z,0.77
2023-02-09T12:35:31.489Z,0.77
2023-02-09T12:36:31.468Z,0.77
2023-02-09T12:37:32.423Z,0.77
2023-02-09T12:38:33.293Z,0.77
2023-02-09T12:39:34.076Z,0.77
2023-02-09T12:40:34.994Z,0.73
2023-02-09T12:41:35.152Z,0.73
2023-02-09T12:42:35.996Z,0.77
2023-02-09T12:43:36.693Z,0.73
2023-02-09T12:44:37.082Z,0.73
2023-02-09T12:45:37.280Z,0.70
2023-02-09T12:46:37.246Z,0.73
2023-02-09T12:47:38.061Z,0.70
2023-02-09T12:48:39.307Z,0.70
2023-02-09T12:49:39.256Z,0.66
2023-02-09T12:50:39.623Z,0.73
2023-02-09T12:51:39.628Z,0.77
2023-02-09T12:52:40.558Z,0.77
2023-02-09T12:53:40.639Z,0.77
2023-02-09T12:54:40.844Z,0.77
2023-02-09T12:55:41.045Z,0.73
2023-02-09T12:56:41.427Z,0.73
2023-02-09T12:57:42.313Z,0.73
2023-02-09T12:57:51.440Z,0.73
2023-02-09T12:58:51.675Z,0.73
2023-02-09T12:59:51.766Z,0.80
2023-02-09T13:00:52.723Z,0.84
2023-02-09T13:01:53.366Z,0.80
2023-02-09T13:02:54.247Z,0.73
2023-02-09T13:03:55.272Z,0.70
2023-02-09T13:04:55.988Z,0.73
2023-02-09T13:05:55.995Z,0.70
2023-02-09T13:06:56.967Z,0.70
2023-02-09T13:07:57.026Z,0.70
2023-02-09T13:08:57.326Z,0.70
2023-02-09T13:09:57.950Z,0.73
2023-02-09T13:10:58.289Z,0.70
2023-02-09T13:11:59.503Z,0.70
2023-02-09T13:12:58.563Z,0.73
2023-02-09T13:13:58.751Z,0.73
2023-02-09T13:14:59.230Z,0.70
2023-02-09T13:16:00.136Z,0.70
2023-02-09T13:17:01.008Z,0.70
2023-02-09T13:18:01.999Z,0.70
2023-02-09T13:19:02.942Z,0.59
2023-02-09T13:20:03.426Z,0.70
2023-02-09T13:21:03.547Z,0.66
2023-02-09T13:22:04.243Z,0.66
2023-02-09T13:23:04.234Z,0.59
2023-02-09T13:24:05.033Z,0.59